Time;durP1;ratioP1;P1;durP2;ratioP2;P2;SDS_P1;SDS_P2;PMS_P1;PMS_P2;Temp;Humidity;BMP_temperature;BMP_pressure;BME280_temperature;BME280_humidity;BME280_pressure;Samples;Min_cycle;Max_cycle;Signal;HPM_P1;HPM_P2
2022/08/10 00:00:21;;;;;;;6.97;3.70;;;;;;;25.07;100.00;101442.34;2065272;28;20196;-65
2022/08/10 00:01:21;;;;;;;4.73;3.50;;;;;;;25.04;100.00;101438.47;2071803;28;20216;-65
2022/08/10 00:02:22;;;;;;;4.43;3.60;;;;;;;24.97;100.00;101433.28;2066857;28;20687;-65
2022/08/10 00:03:22;;;;;;;5.37;3.50;;;;;;;25.05;100.00;101445.69;2064980;28;20750;-65
2022/08/10 00:04:23;;;;;;;5.30;3.27;;;;;;;24.92;100.00;101427.63;2071780;28;20192;-65
2022/08/10 00:05:25;;;;;;;5.17;3.80;;;;;;;24.48;100.00;101351.72;2063624;28;20185;-65
2022/08/10 00:06:26;;;;;;;5.97;3.93;;;;;;;25.05;100.00;101457.03;2063873;28;20709;-65
2022/08/10 00:07:26;;;;;;;4.93;3.60;;;;;;;24.96;100.00;101471.44;2065050;28;20622;-65
2022/08/10 00:08:27;;;;;;;4.97;3.70;;;;;;;24.75;100.00;101463.63;2065583;28;20383;-65
2022/08/10 00:09:28;;;;;;;4.57;3.90;;;;;;;24.65;100.00;101457.41;2065209;28;20178;-65
2022/08/10 00:10:28;;;;;;;4.47;3.70;;;;;;;24.67;100.00;101463.34;2064943;28;20245;-65
2022/08/10 00:11:29;;;;;;;4.93;3.80;;;;;;;24.60;100.00;101434.72;2069465;28;20186;-65
2022/08/10 00:12:29;;;;;;;5.73;3.73;;;;;;;24.78;100.00;101457.72;2068647;28;20198;-66
2022/08/10 00:13:30;;;;;;;8.23;4.43;;;;;;;24.38;100.00;101390.06;2064745;28;20226;-66
2022/08/10 00:14:30;;;;;;;7.63;4.07;;;;;;;24.51;100.00;101401.69;2066767;28;20236;-66
2022/08/10 00:15:30;;;;;;;6.00;4.27;;;;;;;24.19;100.00;101357.78;2071899;28;20170;-66
2022/08/10 00:16:31;;;;;;;4.97;4.17;;;;;;;24.87;100.00;101454.66;2063852;28;20698;-66
2022/08/10 00:17:31;;;;;;;7.10;4.20;;;;;;;24.67;100.00;101428.56;2057022;28;20195;-66
2022/08/10 00:18:32;;;;;;;5.53;3.60;;;;;;;24.86;100.00;101460.81;2065177;28;20195;-66
2022/08/10 00:19:32;;;;;;;4.27;3.87;;;;;;;24.10;100.00;101332.53;2064948;28;20196;-66
2022/08/10 00:20:33;;;;;;;5.47;4.23;;;;;;;24.63;100.00;101411.81;2065130;28;20190;-66
2022/08/10 00:21:33;;;;;;;4.97;4.13;;;;;;;24.87;100.00;101456.72;2063792;28;20255;-66
2022/08/10 00:22:34;;;;;;;4.97;3.87;;;;;;;24.89;100.00;101459.81;2064216;28;20189;-65
2022/08/10 00:23:36;;;;;;;4.80;3.80;;;;;;;24.85;100.00;101454.41;2069740;28;20209;-66
2022/08/10 00:24:36;;;;;;;5.93;4.30;;;;;;;24.81;100.00;101458.75;2065450;28;20613;-66
2022/08/10 00:25:37;;;;;;;6.90;4.33;;;;;;;24.72;100.00;101462.59;2064232;28;20186;-65
2022/08/10 00:26:37;;;;;;;5.13;4.37;;;;;;;24.64;100.00;101460.75;2070877;28;20748;-66
2022/08/10 00:27:37;;;;;;;4.77;4.27;;;;;;;24.63;100.00;101470.56;2067770;28;20193;-66
2022/08/10 00:28:38;;;;;;;5.60;4.43;;;;;;;24.57;100.00;101466.91;2068445;28;20563;-66
2022/08/10 00:29:38;;;;;;;5.90;4.37;;;;;;;24.19;100.00;101402.31;2065046;28;20186;-66
2022/08/10 00:30:39;;;;;;;5.23;4.30;;;;;;;24.62;100.00;101475.44;2065078;28;20234;-66
2022/08/10 00:31:40;;;;;;;5.90;3.90;;;;;;;24.65;100.00;101474.44;2064695;28;20174;-66
2022/08/10 00:32:40;;;;;;;4.97;4.00;;;;;;;24.60;100.00;101472.34;2065061;28;20183;-66
2022/08/10 00:33:40;;;;;;;5.33;4.37;;;;;;;24.50;100.00;101490.81;2073436;28;20189;-66
2022/08/10 00:34:41;;;;;;;6.57;4.83;;;;;;;24.34;100.00;101487.88;2066265;28;20236;-65
2022/08/10 00:35:41;;;;;;;4.57;4.17;;;;;;;24.33;100.00;101495.63;2064206;28;20683;-65
2022/08/10 00:36:42;;;;;;;4.83;4.07;;;;;;;23.77;100.00;101417.25;2069155;28;20225;-65
2022/08/10 00:37:42;;;;;;;5.17;4.50;;;;;;;24.30;100.00;101490.22;2072146;28;20264;-66
2022/08/10 00:38:43;;;;;;;5.53;4.50;;;;;;;24.32;100.00;101491.25;2070652;28;20245;-65
2022/08/10 00:39:44;;;;;;;5.73;4.30;;;;;;;24.20;100.00;101463.38;2064174;28;20186;-66
2022/08/10 00:40:45;;;;;;;7.00;4.23;;;;;;;24.38;100.00;101489.22;2065313;28;20202;-65
2022/08/10 00:41:45;;;;;;;5.37;4.30;;;;;;;24.31;100.00;101488.91;2064087;28;20197;-65
2022/08/10 00:42:46;;;;;;;5.00;3.83;;;;;;;24.38;100.00;101506.22;2057400;28;20198;-65
2022/08/10 00:43:46;;;;;;;5.80;4.47;;;;;;;24.43;100.00;101511.13;2064776;28;20198;-65
2022/08/10 00:44:49;;;;;;;5.73;4.27;;;;;;;24.49;100.00;101522.50;2064795;28;20201;-66
2022/08/10 00:45:50;;;;;;;6.80;4.63;;;;;;;24.11;100.00;101455.84;2063722;28;20198;-66
2022/08/10 00:46:50;;;;;;;5.53;4.50;;;;;;;24.53;100.00;101517.38;2064824;28;20175;-65
2022/08/10 00:47:51;;;;;;;5.80;4.30;;;;;;;24.58;100.00;101510.94;2064088;28;20182;-66
2022/08/10 00:48:51;;;;;;;6.10;4.30;;;;;;;24.62;100.00;101522.84;2064834;28;20202;-66
2022/08/10 00:49:52;;;;;;;5.03;4.50;;;;;;;24.61;100.00;101521.31;2073331;28;20265;-65
2022/08/10 00:50:52;;;;;;;7.80;4.87;;;;;;;24.59;100.00;101521.03;2065423;28;20667;-65
2022/08/10 00:51:53;;;;;;;8.80;4.50;;;;;;;24.56;100.00;101517.13;2062195;28;20598;-65
2022/08/10 00:52:54;;;;;;;5.03;4.40;;;;;;;24.56;100.00;101516.38;2059001;28;20598;-65
2022/08/10 00:53:54;;;;;;;6.00;4.03;;;;;;;24.52;100.00;101515.81;2064512;28;20289;-65
2022/08/10 00:54:56;;;;;;;5.50;4.20;;;;;;;24.54;100.00;101510.41;2064443;28;20214;-66
2022/08/10 00:55:57;;;;;;;5.00;4.23;;;;;;;24.54;100.00;101511.19;2064086;28;20170;-65
2022/08/10 00:56:57;;;;;;;5.23;4.57;;;;;;;24.57;100.00;101518.66;2064651;28;20182;-66
2022/08/10 00:57:59;;;;;;;5.83;4.43;;;;;;;24.53;100.00;101515.31;2064683;28;20182;-65
2022/08/10 00:58:59;;;;;;;5.13;4.50;;;;;;;24.60;100.00;101543.19;2064691;28;20248;-66
2022/08/10 01:00:00;;;;;;;5.10;4.60;;;;;;;24.25;100.00;101488.13;2064695;28;20202;-65
2022/08/10 01:01:00;;;;;;;4.80;4.27;;;;;;;24.59;100.00;101546.53;2064677;28;20190;-65
2022/08/10 01:02:01;;;;;;;5.47;4.20;;;;;;;24.63;100.00;101544.25;2064659;28;20269;-65
2022/08/10 01:03:02;;;;;;;5.47;4.60;;;;;;;24.49;100.00;101519.66;2064633;28;20190;-65
2022/08/10 01:04:03;;;;;;;5.30;4.80;;;;;;;24.07;100.00;101460.97;2068142;28;20568;-66
2022/08/10 01:05:07;;;;;;;5.60;4.30;;;;;;;24.69;100.00;101542.19;2070772;28;20679;-65
2022/08/10 01:06:35;;;;;;;5.00;4.37;;;;;;;24.68;100.00;101544.28;2064202;28;20214;-66
2022/08/10 01:08:00;;;;;;;5.97;4.50;;;;;;;24.71;100.00;101543.25;2064320;28;20692;-65
2022/08/10 01:09:03;;;;;;;5.63;4.60;;;;;;;24.67;100.00;101539.13;2064585;28;20230;-66
2022/08/10 01:10:40;;;;;;;5.40;4.67;;;;;;;24.62;100.00;101539.84;2064554;28;20241;-66
2022/08/10 01:11:45;;;;;;;6.73;4.70;;;;;;;24.46;100.00;101543.34;2072223;28;20185;-65
2022/08/10 01:13:03;;;;;;;5.10;4.60;;;;;;;24.47;100.00;101550.56;2071010;28;20189;-65
2022/08/10 01:14:25;;;;;;;6.00;4.83;;;;;;;24.28;100.00;101507.72;2064718;28;20212;-65
2022/08/10 01:15:34;;;;;;;5.57;4.80;;;;;;;24.54;100.00;101542.38;2068390;28;20567;-66
2022/08/10 01:16:52;;;;;;;5.43;4.50;;;;;;;24.52;100.00;101549.81;2064459;28;20628;-65
2022/08/10 01:18:01;;;;;;;6.63;4.57;;;;;;;24.57;100.00;101543.41;2064028;28;20198;-65
2022/08/10 01:19:30;;;;;;;5.17;4.67;;;;;;;24.62;100.00;101539.84;2064421;28;20186;-65
2022/08/10 01:20:49;;;;;;;5.30;4.80;;;;;;;24.60;100.00;101542.41;2049291;28;20200;-65
2022/08/10 01:22:07;;;;;;;7.17;4.67;;;;;;;24.55;100.00;101549.59;2064384;28;20625;-65
2022/08/10 01:23:23;;;;;;;4.90;4.40;;;;;;;24.52;100.00;101539.25;2066304;28;20250;-65
2022/08/10 01:24:29;;;;;;;7.83;4.87;;;;;;;24.51;100.00;101546.19;2069046;28;20256;-65
2022/08/10 01:25:55;;;;;;;5.80;4.73;;;;;;;24.55;100.00;101545.97;2066031;28;20185;-65
2022/08/10 01:27:14;;;;;;;4.77;4.10;;;;;;;24.52;100.00;101544.16;2072458;28;20185;-65
2022/08/10 01:28:37;;;;;;;5.77;4.60;;;;;;;24.54;100.00;101544.41;2072445;28;20201;-66
2022/08/10 01:30:02;;;;;;;6.70;4.17;;;;;;;24.53;100.00;101545.69;2064312;28;20190;-65
2022/08/10 01:31:04;;;;;;;8.20;4.20;;;;;;;24.49;100.00;101528.16;2068511;28;20180;-65
2022/08/10 01:32:08;;;;;;;8.73;4.50;;;;;;;24.54;100.00;101533.88;2073074;28;20177;-66
2022/08/10 01:33:11;;;;;;;12.83;5.37;;;;;;;24.53;100.00;101540.81;2073072;28;20173;-65
2022/08/10 01:34:30;;;;;;;4.90;4.30;;;;;;;24.34;100.00;101542.50;2072514;28;20655;-65
2022/08/10 01:35:38;;;;;;;6.10;4.83;;;;;;;24.00;100.00;101526.56;2064406;28;20166;-65
2022/08/10 01:36:54;;;;;;;6.23;5.13;;;;;;;23.45;100.00;101444.03;2072742;28;20309;-65
2022/08/10 01:38:02;;;;;;;5.30;4.80;;;;;;;24.08;100.00;101533.31;2064315;28;20410;-65
2022/08/10 01:39:05;;;;;;;7.50;5.00;;;;;;;24.13;100.00;101540.28;2055797;28;20179;-65
2022/08/10 01:40:12;;;;;;;6.27;4.73;;;;;;;24.12;100.00;101539.53;2060327;28;20617;-65
2022/08/10 01:41:25;;;;;;;6.37;4.80;;;;;;;23.51;100.00;101456.16;2072954;28;20640;-65
2022/08/10 01:42:29;;;;;;;7.83;4.80;;;;;;;24.07;100.00;101536.66;2072973;28;20162;-66
2022/08/10 01:43:32;;;;;;;8.03;5.10;;;;;;;24.05;100.00;101534.31;2064861;28;20261;-65
2022/08/10 01:44:42;;;;;;;10.77;5.20;;;;;;;24.13;100.00;101545.97;2071825;28;20275;-65
2022/08/10 01:45:45;;;;;;;9.33;5.40;;;;;;;24.14;100.00;101550.34;2069999;28;20709;-65
2022/08/10 01:46:54;;;;;;;11.40;5.47;;;;;;;24.12;100.00;101545.19;2070646;28;20205;-65
2022/08/10 01:49:19;;;;;;;10.13;5.43;;;;;;;23.74;100.00;101496.75;2064995;28;20174;-65
2022/08/10 01:50:45;;;;;;;8.33;5.40;;;;;;;24.09;100.00;101542.56;2064503;28;20198;-65
2022/08/10 01:51:51;;;;;;;9.97;5.23;;;;;;;24.11;100.00;101546.44;2053721;28;20505;-65
2022/08/10 01:52:59;;;;;;;7.47;5.57;;;;;;;23.57;100.00;101468.31;2056254;28;20167;-65
2022/08/10 01:54:07;;;;;;;5.50;4.60;;;;;;;23.24;100.00;101419.16;2064635;28;20923;-65
2022/08/10 01:55:11;;;;;;;6.20;5.10;;;;;;;24.03;100.00;101556.72;2071625;28;20976;-65
2022/08/10 01:56:14;;;;;;;6.13;4.97;;;;;;;24.01;100.00;101550.00;2064418;28;20179;-65
2022/08/10 01:57:16;;;;;;;7.13;5.00;;;;;;;23.99;100.00;101556.16;2055538;28;20195;-65
2022/08/10 01:58:18;;;;;;;6.80;5.00;;;;;;;23.73;100.00;101510.09;2055937;28;20478;-65
2022/08/10 01:59:31;;;;;;;5.10;4.60;;;;;;;23.95;100.00;101535.03;2070088;28;20197;-65
2022/08/10 02:00:36;;;;;;;5.67;4.50;;;;;;;23.96;100.00;101534.50;2072470;28;20934;-65
2022/08/10 02:01:40;;;;;;;6.00;5.10;;;;;;;23.92;100.00;101544.50;2071459;28;20193;-65
2022/08/10 02:02:42;;;;;;;5.77;4.60;;;;;;;23.91;100.00;101542.97;2072351;28;20231;-65
2022/08/10 02:03:46;;;;;;;5.83;5.23;;;;;;;23.34;100.00;101454.47;2069126;28;20186;-65
2022/08/10 02:04:49;;;;;;;7.50;4.80;;;;;;;23.92;100.00;101547.34;2068490;28;20441;-65
2022/08/10 02:05:54;;;;;;;8.43;5.00;;;;;;;23.96;100.00;101547.91;2063473;28;21142;-65
2022/08/10 02:06:56;;;;;;;11.10;5.13;;;;;;;23.61;100.00;101507.69;2057796;28;20257;-65
2022/08/10 02:07:59;;;;;;;9.20;4.83;;;;;;;23.75;100.00;101520.94;2063593;28;20220;-65
2022/08/10 02:09:01;;;;;;;10.67;4.97;;;;;;;23.72;100.00;101525.53;2063983;28;20928;-66
2022/08/10 02:10:05;;;;;;;7.30;4.97;;;;;;;23.93;100.00;101557.38;2064786;28;20182;-65
2022/08/10 02:11:08;;;;;;;4.77;4.37;;;;;;;23.93;100.00;101554.56;2064766;28;20414;-65
2022/08/10 02:12:12;;;;;;;6.67;4.43;;;;;;;23.56;100.00;101512.03;2071466;28;20193;-65
2022/08/10 02:13:16;;;;;;;5.03;4.60;;;;;;;23.66;100.00;101518.28;2065521;28;20253;-65
2022/08/10 02:14:18;;;;;;;6.83;4.80;;;;;;;23.90;100.00;101558.41;2064279;28;20271;-65
2022/08/10 02:15:19;;;;;;;7.37;4.40;;;;;;;23.91;100.00;101548.63;2060405;28;20675;-65
2022/08/10 02:16:22;;;;;;;6.03;4.43;;;;;;;23.92;100.00;101550.97;2063301;28;20194;-65
2022/08/10 02:17:26;;;;;;;7.37;4.87;;;;;;;23.92;100.00;101548.13;2072150;28;20268;-66
2022/08/10 02:18:29;;;;;;;8.07;4.47;;;;;;;23.96;100.00;101548.66;2069128;28;20445;-65
2022/08/10 02:19:33;;;;;;;5.03;4.30;;;;;;;23.97;100.00;101540.94;2066731;28;20938;-65
2022/08/10 02:20:41;;;;;;;5.63;4.97;;;;;;;23.91;100.00;101549.38;2070840;28;20926;-65
2022/08/10 02:21:45;;;;;;;8.27;4.90;;;;;;;23.89;100.00;101551.94;2063992;28;20428;-65
2022/08/10 02:22:50;;;;;;;7.53;4.87;;;;;;;23.92;100.00;101558.66;2063826;28;20845;-65
2022/08/10 02:23:53;;;;;;;8.50;4.70;;;;;;;23.97;100.00;101555.09;2064074;28;20652;-65
2022/08/10 02:24:55;;;;;;;6.37;4.90;;;;;;;23.40;100.00;101470.22;2072694;28;20444;-65
2022/08/10 02:25:59;;;;;;;9.37;4.63;;;;;;;24.05;100.00;101559.03;2063209;28;20251;-65
2022/08/10 02:27:01;;;;;;;7.97;4.60;;;;;;;24.07;100.00;101550.81;2063225;28;20754;-65
2022/08/10 02:28:04;;;;;;;7.23;4.73;;;;;;;24.07;100.00;101551.59;2070228;28;20193;-65
2022/08/10 02:29:06;;;;;;;5.50;4.63;;;;;;;23.94;100.00;101522.91;2064086;28;20445;-65
2022/08/10 02:30:08;;;;;;;5.63;4.37;;;;;;;23.18;100.00;101399.28;2068677;28;20351;-65
2022/08/10 02:31:16;;;;;;;8.60;4.90;;;;;;;24.18;100.00;101543.19;2068541;28;20561;-65
2022/08/10 02:32:20;;;;;;;8.47;5.27;;;;;;;23.70;100.00;101473.53;2063837;28;20195;-65
2022/08/10 02:33:24;;;;;;;8.53;4.70;;;;;;;24.14;100.00;101545.47;2064209;28;20567;-65
2022/08/10 02:34:27;;;;;;;7.63;4.80;;;;;;;24.15;100.00;101552.66;2071396;28;20184;-66
2022/08/10 02:35:28;;;;;;;9.70;4.77;;;;;;;24.13;100.00;101549.56;2070897;28;20174;-65
2022/08/10 02:36:32;;;;;;;7.50;4.90;;;;;;;24.03;100.00;101558.75;2064891;28;20759;-65
2022/08/10 02:37:37;;;;;;;6.90;5.17;;;;;;;24.05;100.00;101547.72;2074056;28;20604;-65
2022/08/10 02:38:46;;;;;;;7.23;4.83;;;;;;;23.69;100.00;101505.97;2066369;28;20253;-65
2022/08/10 02:39:47;;;;;;;6.67;4.60;;;;;;;24.01;100.00;101553.59;2068182;28;20166;-66
2022/08/10 02:40:53;;;;;;;8.70;5.00;;;;;;;23.77;100.00;101527.63;2066724;28;20269;-65
2022/08/10 02:42:24;;;;;;;5.57;4.97;;;;;;;23.92;100.00;101553.00;2065783;28;20191;-66
2022/08/10 02:43:29;;;;;;;7.07;4.90;;;;;;;23.94;100.00;101556.88;2060780;28;20261;-65
2022/08/10 02:44:41;;;;;;;8.53;5.30;;;;;;;23.94;100.00;101556.09;2065850;28;20181;-65
2022/08/10 02:45:45;;;;;;;7.27;5.07;;;;;;;23.98;100.00;101562.31;2072663;28;20169;-65
2022/08/10 02:46:49;;;;;;;6.17;4.87;;;;;;;24.01;100.00;101567.75;2074243;28;20259;-65
2022/08/10 02:48:44;;;;;;;7.30;4.87;;;;;;;23.99;100.00;101561.03;2066037;28;20183;-65
2022/08/10 02:49:58;;;;;;;6.17;4.73;;;;;;;23.99;100.00;101569.53;2051267;28;20242;-65
2022/08/10 02:51:07;;;;;;;5.47;4.80;;;;;;;23.54;100.00;101496.81;2048248;29;20238;-65
2022/08/10 02:52:16;;;;;;;7.53;4.90;;;;;;;23.47;100.00;101486.72;2066605;28;20198;-65
2022/08/10 02:53:40;;;;;;;9.00;5.30;;;;;;;23.97;100.00;101561.56;2067694;28;20730;-65
2022/08/10 02:54:49;;;;;;;10.50;5.50;;;;;;;23.97;100.00;101570.03;2065921;28;20190;-65
2022/08/10 02:56:10;;;;;;;11.37;5.63;;;;;;;23.82;100.00;101540.28;2065153;28;20590;-65
2022/08/10 02:57:14;;;;;;;11.10;5.17;;;;;;;23.91;100.00;101571.28;2065314;28;20233;-65
2022/08/10 02:58:24;;;;;;;7.93;5.27;;;;;;;23.50;100.00;101496.28;2065401;28;20710;-65
2022/08/10 02:59:33;;;;;;;7.47;5.03;;;;;;;23.96;100.00;101568.47;2066882;28;20167;-65
2022/08/10 03:00:41;;;;;;;7.83;5.27;;;;;;;23.97;100.00;101569.25;2066138;28;20188;-65
2022/08/10 03:01:45;;;;;;;10.50;5.23;;;;;;;23.97;100.00;101577.75;2066090;28;20163;-65
2022/08/10 03:02:48;;;;;;;11.77;5.43;;;;;;;24.01;100.00;101570.56;2073882;28;20575;-65
2022/08/10 03:03:56;;;;;;;10.67;5.70;;;;;;;24.04;100.00;101574.44;2067805;28;20213;-65
2022/08/10 03:05:02;;;;;;;7.13;5.20;;;;;;;24.05;100.00;101573.19;2065653;28;20558;-65
2022/08/10 03:06:10;;;;;;;9.07;5.33;;;;;;;24.07;100.00;101582.75;2071699;28;20260;-65
2022/08/10 03:07:15;;;;;;;9.20;5.57;;;;;;;24.05;100.00;101570.38;2066671;28;20732;-65
2022/08/10 03:08:20;;;;;;;6.07;5.23;;;;;;;24.03;100.00;101572.91;2071948;28;20190;-65
2022/08/10 03:09:25;;;;;;;8.30;5.40;;;;;;;24.03;100.00;101576.53;2068003;28;20206;-65
2022/08/10 03:10:28;;;;;;;9.17;5.90;;;;;;;23.98;100.00;101565.94;2070840;28;20593;-65
2022/08/10 03:11:32;;;;;;;9.20;5.70;;;;;;;23.85;100.00;101564.75;2073765;28;20201;-65
2022/08/10 03:12:35;;;;;;;7.17;5.67;;;;;;;24.05;100.00;101578.88;2068967;28;20205;-65
2022/08/10 03:13:36;;;;;;;9.87;6.50;;;;;;;23.45;100.00;101503.44;2068597;28;20190;-65
2022/08/10 03:14:38;;;;;;;10.20;7.50;;;;;;;23.96;100.00;101576.22;2070678;28;20200;-65
2022/08/10 03:15:39;;;;;;;9.67;6.97;;;;;;;23.92;100.00;101581.31;2065299;28;20182;-65
2022/08/10 03:16:41;;;;;;;10.33;7.40;;;;;;;23.50;100.00;101522.50;2073511;28;20191;-65
2022/08/10 03:17:44;;;;;;;9.97;7.13;;;;;;;23.88;100.00;101581.50;2065769;28;20327;-66
2022/08/10 03:18:47;;;;;;;9.13;7.73;;;;;;;23.89;100.00;101579.50;2073155;28;20536;-65
2022/08/10 03:19:49;;;;;;;8.77;7.87;;;;;;;23.93;100.00;101582.84;2066797;28;20209;-65
2022/08/10 03:20:50;;;;;;;10.27;7.33;;;;;;;23.94;100.00;101584.41;2071393;28;20244;-65
2022/08/10 03:21:52;;;;;;;8.40;7.33;;;;;;;23.43;100.00;101516.53;2068790;28;20197;-65
2022/08/10 03:22:54;;;;;;;11.00;7.90;;;;;;;23.89;100.00;101576.66;2065319;28;20190;-65
2022/08/10 03:23:58;;;;;;;9.27;8.27;;;;;;;23.92;100.00;101579.28;2065248;28;20198;-65
2022/08/10 03:25:00;;;;;;;8.93;7.77;;;;;;;23.28;100.00;101490.41;2057974;28;20206;-65
2022/08/10 03:26:01;;;;;;;8.97;8.00;;;;;;;23.88;100.00;101577.91;2063147;28;20182;-65
2022/08/10 03:27:03;;;;;;;9.00;8.03;;;;;;;23.92;100.00;101593.44;2065355;28;20174;-65
2022/08/10 03:28:05;;;;;;;12.00;8.13;;;;;;;23.58;100.00;101542.63;2073827;28;20182;-65
2022/08/10 03:29:08;;;;;;;13.37;8.23;;;;;;;23.78;100.00;101577.31;2073458;28;20185;-65
2022/08/10 03:30:09;;;;;;;14.70;8.07;;;;;;;23.98;100.00;101596.28;2066526;28;20218;-65
2022/08/10 03:31:28;;;;;;;13.77;7.97;;;;;;;23.96;100.00;101593.19;2065319;28;20730;-65
2022/08/10 03:32:30;;;;;;;13.83;7.97;;;;;;;24.02;100.00;101596.84;2065517;28;20197;-65
2022/08/10 03:33:35;;;;;;;11.10;7.73;;;;;;;24.01;100.00;101598.13;2065458;28;20748;-65
2022/08/10 03:34:37;;;;;;;14.23;8.40;;;;;;;24.01;100.00;101603.78;2067486;28;20565;-65
2022/08/10 03:35:38;;;;;;;12.63;8.67;;;;;;;24.01;100.00;101610.22;2068462;28;20192;-65
2022/08/10 03:36:39;;;;;;;12.63;8.57;;;;;;;24.01;100.00;101607.38;2067211;28;20273;-65
2022/08/10 03:37:40;;;;;;;13.73;9.30;;;;;;;24.04;100.00;101605.59;2065170;28;20281;-66
2022/08/10 03:38:43;;;;;;;10.13;7.57;;;;;;;24.06;100.00;101608.72;2058094;28;20191;-65
2022/08/10 03:39:43;;;;;;;14.77;8.93;;;;;;;24.05;100.00;101605.09;2063903;28;20174;-65
2022/08/10 03:40:47;;;;;;;13.33;8.80;;;;;;;23.73;100.00;101543.28;2065791;28;20174;-65
2022/08/10 03:41:51;;;;;;;12.53;8.73;;;;;;;24.06;100.00;101597.41;2073850;28;20729;-65
2022/08/10 03:42:54;;;;;;;14.17;8.40;;;;;;;24.03;100.00;101595.56;2072931;28;20225;-65
2022/08/10 03:43:56;;;;;;;15.10;8.77;;;;;;;23.92;100.00;101564.31;2063799;28;20261;-65
2022/08/10 03:44:57;;;;;;;13.97;8.30;;;;;;;23.64;100.00;101532.91;2058722;28;20369;-65
2022/08/10 03:46:01;;;;;;;14.20;7.93;;;;;;;23.65;100.00;101513.91;2064361;28;20197;-65
2022/08/10 03:47:04;;;;;;;10.57;7.83;;;;;;;24.14;100.00;101595.66;2064656;28;20577;-65
2022/08/10 03:48:06;;;;;;;11.73;8.40;;;;;;;23.68;100.00;101527.81;2064863;28;20190;-65
2022/08/10 03:49:08;;;;;;;12.57;7.60;;;;;;;23.65;100.00;101534.47;2065340;28;20222;-65
2022/08/10 03:50:09;;;;;;;8.47;6.70;;;;;;;23.55;100.00;101524.59;2065462;28;20201;-65
2022/08/10 03:51:10;;;;;;;11.53;7.40;;;;;;;23.97;100.00;101598.34;2056975;28;20241;-65
2022/08/10 03:52:12;;;;;;;10.30;6.67;;;;;;;24.00;100.00;101603.00;2065049;28;20261;-65
2022/08/10 03:53:13;;;;;;;10.60;7.07;;;;;;;24.01;100.00;101600.97;2065239;28;20623;-65
2022/08/10 03:54:17;;;;;;;9.17;7.03;;;;;;;24.02;100.00;101600.47;2065376;28;20178;-65
2022/08/10 03:55:18;;;;;;;10.93;7.10;;;;;;;23.46;100.00;101532.50;2070242;28;20228;-65
2022/08/10 03:56:20;;;;;;;10.50;6.83;;;;;;;24.06;100.00;101603.06;2072615;28;20244;-65
2022/08/10 03:57:21;;;;;;;7.17;6.33;;;;;;;24.08;100.00;101606.16;2072141;28;20300;-65
2022/08/10 03:58:22;;;;;;;6.73;6.10;;;;;;;23.85;100.00;101582.50;2073464;28;20181;-65
2022/08/10 03:59:23;;;;;;;9.93;7.00;;;;;;;23.73;100.00;101557.44;2071140;28;20266;-65
2022/08/10 04:00:23;;;;;;;9.57;6.60;;;;;;;24.10;100.00;101606.44;2065090;28;20179;-65
2022/08/10 04:01:25;;;;;;;9.50;6.70;;;;;;;24.15;100.00;101602.88;2065620;28;20214;-65
2022/08/10 04:02:27;;;;;;;9.03;6.40;;;;;;;24.14;100.00;101604.13;2065555;28;20233;-65
2022/08/10 04:03:28;;;;;;;9.80;6.50;;;;;;;24.11;100.00;101603.09;2071700;28;20770;-65
2022/08/10 04:04:28;;;;;;;9.70;6.43;;;;;;;24.14;100.00;101604.13;2073116;28;20830;-65
2022/08/10 04:05:30;;;;;;;11.17;6.77;;;;;;;24.02;100.00;101605.34;2067788;28;20273;-65
2022/08/10 04:06:31;;;;;;;7.93;6.27;;;;;;;24.14;100.00;101606.97;2068755;28;20228;-65
2022/08/10 04:07:33;;;;;;;13.17;7.07;;;;;;;23.77;100.00;101563.66;2070024;28;20189;-65
2022/08/10 04:08:33;;;;;;;8.83;6.70;;;;;;;24.13;100.00;101605.44;2064981;28;20174;-65
2022/08/10 04:09:35;;;;;;;8.57;6.20;;;;;;;23.97;100.00;101589.88;2065295;28;20178;-65
2022/08/10 04:10:36;;;;;;;9.33;6.20;;;;;;;24.22;100.00;101605.25;2056761;28;20289;-65
2022/08/10 04:11:38;;;;;;;13.13;7.00;;;;;;;23.82;100.00;101540.28;2064395;28;20236;-65
2022/08/10 04:12:39;;;;;;;9.07;6.83;;;;;;;23.82;100.00;101545.94;2065364;28;20198;-65
2022/08/10 04:13:39;;;;;;;12.33;6.53;;;;;;;24.23;100.00;101607.59;2070633;28;20747;-65
2022/08/10 04:14:40;;;;;;;8.23;6.90;;;;;;;24.20;100.00;101605.75;2068195;28;20571;-65
2022/08/10 04:15:40;;;;;;;8.53;6.40;;;;;;;24.15;100.00;101594.38;2067383;28;20268;-65
2022/08/10 04:16:41;;;;;;;7.20;6.50;;;;;;;24.28;100.00;101608.91;2070456;28;20477;-65
2022/08/10 04:17:41;;;;;;;10.47;6.53;;;;;;;24.30;100.00;101609.19;2065226;28;20174;-65
2022/08/10 04:18:42;;;;;;;9.97;6.37;;;;;;;24.34;100.00;101607.66;2072826;28;20265;-65
2022/08/10 04:19:47;;;;;;;7.93;6.30;;;;;;;24.26;100.00;101592.41;2065545;28;20193;-65
2022/08/10 04:20:53;;;;;;;10.57;6.73;;;;;;;24.18;100.00;101576.38;2072410;28;20192;-65
2022/08/10 04:22:03;;;;;;;8.60;6.53;;;;;;;24.30;100.00;101607.13;2064722;28;20708;-65
2022/08/10 04:23:08;;;;;;;11.17;6.23;;;;;;;24.18;100.00;101582.03;2058168;28;20186;-65
2022/08/10 04:24:14;;;;;;;7.53;5.93;;;;;;;24.12;100.00;101570.69;2064963;28;20190;-66
2022/08/10 04:25:16;;;;;;;9.73;6.63;;;;;;;23.94;100.00;101545.56;2064841;28;20599;-65
2022/08/10 04:26:17;;;;;;;8.03;6.60;;;;;;;24.26;100.00;101615.06;2064618;28;20197;-65
2022/08/10 04:27:18;;;;;;;7.33;6.33;;;;;;;23.32;100.00;101440.81;2064983;28;20282;-64
2022/08/10 04:28:18;;;;;;;9.43;6.10;;;;;;;24.37;100.00;101603.81;2068644;28;20331;-65
2022/08/10 04:29:19;;;;;;;8.33;6.03;;;;;;;24.34;100.00;101599.16;2070527;28;20221;-65
2022/08/10 04:30:20;;;;;;;9.80;6.33;;;;;;;23.98;100.00;101551.00;2065948;28;20206;-65
2022/08/10 04:31:23;;;;;;;11.10;6.20;;;;;;;24.13;100.00;101580.72;2069067;28;20190;-65
2022/08/10 04:32:25;;;;;;;8.40;6.67;;;;;;;24.36;100.00;101607.91;2069672;28;20644;-64
2022/08/10 04:33:30;;;;;;;8.17;6.03;;;;;;;24.03;100.00;101553.88;2072263;28;20197;-65
2022/08/10 04:34:32;;;;;;;9.27;6.67;;;;;;;24.35;100.00;101614.09;2067891;28;20628;-65
2022/08/10 04:35:34;;;;;;;10.30;6.50;;;;;;;24.32;100.00;101609.44;2067594;28;20676;-65
2022/08/10 04:36:35;;;;;;;8.63;6.33;;;;;;;24.31;100.00;101614.31;2072193;28;20760;-65
2022/08/10 04:37:37;;;;;;;10.57;6.60;;;;;;;24.02;100.00;101557.19;2067868;28;20569;-64
2022/08/10 04:38:41;;;;;;;11.40;6.50;;;;;;;24.42;100.00;101611.56;2062995;28;20197;-64
2022/08/10 04:39:42;;;;;;;8.50;6.30;;;;;;;24.46;100.00;101608.53;2063377;28;20224;-64
2022/08/10 04:40:43;;;;;;;9.87;7.17;;;;;;;24.10;100.00;101559.06;2062057;28;20209;-64
2022/08/10 04:41:44;;;;;;;8.83;6.30;;;;;;;24.53;100.00;101616.53;2061559;28;20179;-64
2022/08/10 04:42:46;;;;;;;10.77;6.57;;;;;;;24.17;100.00;101558.63;2069315;28;20174;-65
2022/08/10 04:43:47;;;;;;;14.20;6.70;;;;;;;24.14;100.00;101545.47;2068120;28;20693;-66
2022/08/10 04:44:49;;;;;;;10.77;6.40;;;;;;;24.50;100.00;101598.50;2063598;28;20246;-65
2022/08/10 04:45:50;;;;;;;13.87;7.30;;;;;;;24.59;100.00;101606.03;2061851;28;20285;-65
2022/08/10 04:46:50;;;;;;;14.77;6.90;;;;;;;24.61;100.00;101612.00;2067956;28;20676;-64
2022/08/10 04:47:50;;;;;;;12.27;7.20;;;;;;;24.69;100.00;101610.22;2068135;28;20275;-64
2022/08/10 04:48:51;;;;;;;14.67;7.00;;;;;;;24.30;100.00;101555.38;2071589;28;20627;-65
2022/08/10 04:49:51;;;;;;;18.37;7.77;;;;;;;24.74;100.00;101610.28;2070456;28;20186;-65
2022/08/10 04:50:52;;;;;;;12.33;7.60;;;;;;;24.64;100.00;101608.94;2066672;28;20220;-65
2022/08/10 04:51:52;;;;;;;8.97;6.07;;;;;;;24.78;100.00;101612.88;2070847;28;20204;-65
2022/08/10 04:52:53;;;;;;;10.37;6.00;;;;;;;24.81;100.00;101609.78;2072061;28;20182;-65
2022/08/10 04:53:54;;;;;;;12.43;6.40;;;;;;;24.83;100.00;101606.44;2067603;28;20328;-65
2022/08/10 04:54:54;;;;;;;10.07;6.07;;;;;;;24.84;100.00;101616.50;2071720;28;20216;-65
2022/08/10 04:55:55;;;;;;;9.87;6.50;;;;;;;24.39;100.00;101543.81;2067432;28;20201;-64